• Join FlightAware (Why Join?)
  • Login
  • US Flag 
06:48AM EDT


 

Airport Tracker/Info


-or-


 

Live Flight TrackerFlight Track Log ✈ EJA922 ✈ 14-Nov-2013 ✈ KPBI - KSSI

Flight Track Log - Related Links

Times and Time Zones

All times are in EST time to prevent confusion due to time zone crossing. See the EJA922 flight status page for this flight to view local times or setup timezone preferences in your user account.

Time Position Orientation Groundspeed Altitude Reporting Facility
EST Latitude Longitude Course Direction KTS MPH feet Rate Location/Type
01:52PM 26.7278 -79.9942 329° Northwest 262 302 7,600  Level Miami Center
01:53PM 26.8064 -80.0175 345° North 275 316 10,100 1,920 Climbing Miami Center
01:54PM 26.8314 -80.1206 285° West 286 329 11,500 1,620 Climbing Miami Center
01:55PM 26.8478 -80.2281 280° West 350 403 13,400 1,200 Climbing Miami Center
01:56PM 27.2952 -80.2664 329° Northwest  Level Estimated
01:56PM 26.8953 -80.3389 296° West 391 450 14,000  Level Miami Center
01:57PM 27.0067 -80.3981 335° Northwest 374 430 15,900 1,920 Climbing Miami Center
01:58PM 27.1097 -80.4456 338° Northwest 396 456 17,900 1,860 Climbing Miami Center
01:59PM 27.2069 -80.4858 340° North 401 461 19,700 1,860 Climbing Miami Center
02:00PM 27.3125 -80.5267 341° North 401 461 21,700 1,860 Climbing Miami Center
02:01PM 27.4200 -80.5675 341° North 407 468 23,500 1,740 Climbing Miami Center
02:02PM 27.5275 -80.6039 343° North 407 468 25,200 1,620 Climbing Miami Center
02:03PM 27.6411 -80.6472 341° North 407 468 26,800 900 Climbing Miami Center
02:04PM 27.7525 -80.7003 337° Northwest 421 484 27,000 60 Climbing Miami Center
02:05PM 27.8742 -80.7583 337° Northwest 435 501 27,000  Level Miami Center
02:06PM 27.9978 -80.8192 337° Northwest 467 537 27,000  Level Miami Center
02:07PM 28.1083 -80.8911 330° Northwest 472 543 27,000  Level Miami Center
02:08PM 28.2139 -81.0008 318° Northwest 471 542 27,000  Level Miami Center
02:09PM 28.3050 -81.0939 318° Northwest 466 536 27,000  Level Miami Center
02:10PM 28.4608 -81.2514 318° Northwest 467 537 27,000  Level Jacksonville Center
02:11PM 28.5661 -81.3372 324° Northwest 467 537 27,000 -300 Level Jacksonville Center
02:12PM 28.7022 -81.3564 353° North 459 528 26,400 -840 Descending Jacksonville Center
02:13PM 28.8400 -81.3733 354° North 473 544 25,400 -1,080 Descending Jacksonville Center
02:14PM 28.9556 -81.4331 336° Northwest 468 539 24,300 -720 Descending Jacksonville Center
02:15PM 29.0689 -81.4933 335° Northwest 457 526 24,000 -240 Descending Jacksonville Center
02:16PM 29.1803 -81.5558 334° Northwest 447 514 23,900 -660 Descending Jacksonville Center
02:17PM 29.3019 -81.6233 334° Northwest 447 514 22,700 -1,200 Descending Jacksonville Center
02:18PM 29.4131 -81.6744 338° Northwest 442 509 21,500 -900 Descending Jacksonville Center
02:19PM 29.5444 -81.6631 North 435 501 21,000 -300 Descending Jacksonville Center
02:20PM 29.6736 -81.6328 12° North 448 516 21,000  Level Jacksonville Center
02:21PM 29.8028 -81.6119 North 460 529 21,000  Level Jacksonville Center
02:22PM 29.9194 -81.5889 10° North 465 535 21,000  Level Jacksonville Center
02:23PM 30.0444 -81.5656 North 465 535 21,000  Level Jacksonville Center
02:24PM 30.1736 -81.5397 10° North 465 535 21,000 -1,140 Level Jacksonville Center
02:25PM 30.2778 -81.5192 10° North 455 524 19,100 -2,520 Descending Jacksonville Center
02:25PM 30.2967 -81.5164 North 459 528 18,500 -2,400 Descending Jacksonville Center
02:26PM 30.3614 -81.5083 North 435 501 17,400 -2,340 Descending Jacksonville Center
02:26PM 30.4175 -81.4978 North 451 519 16,200 -1,560 Descending Jacksonville Center
02:27PM 30.4717 -81.4897 North 425 489 16,000 -240 Descending Jacksonville Center
02:27PM 30.5364 -81.4817 North 436 502 16,000 -120 Level Jacksonville Center
02:28PM 30.6031 -81.4733 North 432 497 15,900 -900 Descending Jacksonville Center
02:28PM 30.6511 -81.4656 North 424 488 15,100 -2,160 Descending Jacksonville Center
02:29PM 30.7511 -81.4567 North 400 460 12,600 -2,700 Descending Jacksonville Center
02:30PM 30.8125 -81.5211 318° Northwest 316 364 9,800 -3,060 Descending Jacksonville Center
02:31PM 30.8675 -81.5856 315° West 288 331 6,500 -2,400 Descending Jacksonville Center
02:32PM 30.9264 -81.6406 321° Northwest 283 326 5,000 -780 Descending Jacksonville Center
02:33PM 30.9697 -81.5964 41° Northeast 185 213 5,000 -120 Level Jacksonville Center
02:34PM 31.0006 -81.5378 58° Northeast 168 193 4,800 -900 Descending Jacksonville Center
02:35PM 31.0375 -81.4911 47° Northeast 181 208 3,200 -1,500 Descending Jacksonville Center
02:36PM 31.0811 -81.4542 36° Northeast 187 215 1,900 -1,320 Descending Jacksonville Center